Latest Weather Observations for Mount Hotham Airport

IDV60801

Issued at 5:35 pm EDT Tuesday 21 October 2014 (issued every 30 minutes, with the page automatically refreshed every 10 minutes)

About weather observations | Map of weather stations | Latest weather observations for VIC | Other Formats
Station Details ID: 083055 Name: MOUNT HOTHAM AIRPORT Lat: -37.05 Lon: 147.33 Height: 1295.4 m
Data from the previous 72 hours. | See also: Recent months at Mount Hotham Airport
Date/Time
EDT
Temp
°C
App
Temp
°C
Dew
Point
Rel
Hum
%
Delta-T
°C
Wind Press
QNH
hPa
Press
MSL
hPa
Rain
since 9 am
mm
Dir
 
Spd
km/h
Gust
km/h
Spd
kts
Gust
kts
21/05:30pm 17.7 14.9 8.6 55 5.0 SE 13 17 7 9 1027.5 - 0.0
21/05:00pm 17.4 15.0 8.5 56 4.9 SE 11 19 6 10 1027.5 - 0.0
21/04:30pm 17.9 15.3 7.6 51 5.6 E 11 17 6 9 1027.5 - 0.0
21/04:00pm 19.0 16.6 7.1 46 6.4 E 9 19 5 10 1027.7 - 0.0
21/03:30pm 19.2 16.6 7.6 47 6.3 E 11 20 6 11 1027.8 - 0.0
21/03:00pm 19.5 16.7 8.5 49 6.1 E 13 24 7 13 1028.1 1029.0 0.0
21/02:30pm 18.9 15.9 7.7 48 6.1 ESE 13 22 7 12 1028.4 - 0.0
21/02:00pm 18.5 14.9 6.7 46 6.3 ESE 15 20 8 11 1028.8 - 0.0
21/01:30pm 18.1 15.7 6.9 48 6.0 SE 9 17 5 9 1029.0 - 0.0
21/01:00pm 18.2 15.6 7.6 50 5.7 E 11 17 6 9 1029.2 - 0.0
21/12:30pm 17.6 14.5 7.1 50 5.6 E 13 20 7 11 1029.4 - 0.0
21/12:00pm 17.0 14.3 7.4 53 5.1 E 11 17 6 9 1029.6 1030.5 0.0
21/11:30am 16.4 13.4 6.2 51 5.3 ESE 11 19 6 10 1029.9 - 0.0
21/11:00am 16.7 14.6 8.4 58 4.5 ESE 9 15 5 8 1029.9 - 0.0
21/10:30am 15.6 13.1 6.6 55 4.7 E 9 13 5 7 1029.9 - 0.0
21/10:00am 15.1 12.7 6.9 58 4.3 ESE 9 11 5 6 1029.8 - 0.0
21/09:30am 14.7 12.6 6.5 58 4.3 ESE 7 11 4 6 1029.7 - 0.0
21/09:00am 14.1 12.5 7.9 66 3.3 ESE 6 7 3 4 1029.5 1030.4 0.0
21/08:30am 12.9 12.1 8.2 73 2.5 ESE 2 6 1 3 1029.4 - 0.0
21/08:00am 10.3 9.0 9.2 93 0.6 N 6 7 3 4 1029.0 - 0.0
21/07:30am 8.1 5.9 8.0 99 0.1 NNW 9 11 5 6 1028.7 - 0.0
21/07:00am 6.0 3.4 5.9 99 0.0 NNW 9 9 5 5 1028.6 - 0.0
21/06:30am 4.6 2.1 4.5 99 0.0 NNW 7 7 4 4 1028.3 - 0.0
21/06:00am 3.9 1.4 3.8 99 0.0 NNW 6 7 3 4 1028.0 1028.9 0.0
21/05:30am 4.9 2.4 4.8 99 0.0 NNW 7 9 4 5 1027.9 - 0.0
21/05:00am 3.3 0.5 3.2 99 0.0 NNW 7 7 4 4 1028.0 - 0.0
21/04:58am 2.9 0.0 2.8 99 0.0 NNW 7 7 4 4 1028.0 - 0.0
21/04:30am 2.2 -0.6 2.1 99 0.0 N 6 7 3 4 1027.9 - 0.0
21/04:22am 1.5 -1.4 1.4 99 0.0 N 6 7 3 4 1027.9 - 0.0
21/04:00am 3.5 0.7 3.4 99 0.0 NNW 7 7 4 4 1028.0 - 0.0
21/03:34am 2.7 0.0 2.6 99 0.0 NW 6 6 3 3 1028.3 - 0.0
21/03:30am 2.9 0.2 2.8 99 0.0 NW 6 7 3 4 1028.3 - 0.0
21/03:10am 1.5 -0.6 1.4 99 0.0 NNW 2 4 1 2 1028.6 - 0.0
21/03:00am 3.1 0.5 3.0 99 0.0 NNW 6 9 3 5 1028.7 1029.6 0.0
21/02:43am 2.7 -0.2 2.6 99 0.0 NW 7 9 4 5 1028.7 - 0.0
21/02:30am 2.0 -0.4 1.9 99 0.0 WNW 4 6 2 3 1028.8 - 0.0
21/02:00am 2.2 -0.2 2.1 99 0.0 NW 4 7 2 4 1029.1 - 0.0
21/01:30am 3.6 1.1 3.5 99 0.0 NW 6 7 3 4 1029.6 - 0.0
21/01:00am 4.2 2.1 4.1 99 0.0 NNW 4 6 2 3 1029.8 - 0.0
21/12:30am 4.3 2.6 4.2 99 0.0 WNW 2 6 1 3 1029.9 - 0.0
21/12:00am 4.1 2.8 4.0 99 0.0 WSW 0 2 0 1 1030.0 1031.0 0.0
 
Date/Time
EDT
Temp
°C
App
Temp
°C
Dew
Point
Rel
Hum
%
Delta-T
°C
Wind Press
QNH
hPa
Press
MSL
hPa
Rain
since 9 am
mm
Dir
 
Spd
km/h
Gust
km/h
Spd
kts
Gust
kts
20/11:30pm 4.4 2.8 4.3 99 0.0 SW 2 6 1 3 1030.1 - 0.0
20/11:00pm 4.8 2.9 4.7 99 0.0 S 4 6 2 3 1030.1 - 0.0
20/10:30pm 4.7 3.1 4.6 99 0.0 ESE 2 4 1 2 1030.3 - 0.0
20/10:00pm 4.9 3.4 4.8 99 0.0 N 2 4 1 2 1030.3 - 0.0
20/09:40pm 5.1 3.6 5.0 99 0.0 NNW 2 6 1 3 1030.3 - 0.0
20/09:30pm 5.0 3.5 4.9 99 0.0 WSW 2 6 1 3 1030.3 - 0.0
20/09:06pm 4.6 3.4 4.5 99 0.0 CALM 0 2 0 1 1030.3 - 0.0
20/09:00pm 4.6 3.0 4.5 99 0.0 WNW 2 6 1 3 1030.3 1031.2 0.0
20/08:46pm 3.3 1.0 3.0 98 0.1 SSE 4 7 2 4 1030.0 - 0.0
20/08:30pm 4.5 2.1 4.2 98 0.1 SSE 6 7 3 4 1029.9 - 0.0
20/08:00pm 5.6 2.6 4.2 91 0.6 SE 9 13 5 7 1029.7 - 0.0
20/07:30pm 6.4 2.8 2.9 78 1.6 SE 11 15 6 8 1029.5 - 0.0
20/07:00pm 8.1 4.5 3.2 71 2.3 SE 11 15 6 8 1029.4 - 0.0
20/06:30pm 9.2 5.3 3.4 67 2.7 ESE 13 19 7 10 1029.2 - 0.0
20/06:00pm 10.1 6.3 3.8 65 3.0 ESE 13 19 7 10 1029.0 1029.9 0.0
20/05:30pm 11.0 7.3 4.5 64 3.2 SE 13 19 7 10 1029.0 - 0.0
20/05:00pm 12.0 8.6 6.1 67 3.0 E 13 19 7 10 1028.8 - 0.0
20/04:30pm 12.0 8.5 5.4 64 3.3 ESE 13 17 7 9 1028.8 - 0.0
20/04:00pm 12.2 9.1 5.4 63 3.4 E 11 19 6 10 1028.8 - 0.0
20/03:30pm 11.5 8.3 4.9 64 3.2 ESE 11 17 6 9 1028.9 - 0.0
20/03:00pm 11.1 7.5 5.2 67 2.9 ESE 13 19 7 10 1029.0 1029.9 0.0
20/02:30pm 10.6 7.7 4.7 67 2.9 SE 9 17 5 9 1029.1 - 0.0
20/02:00pm 9.5 6.4 3.7 67 2.7 SE 9 19 5 10 1029.5 - 0.0
20/01:30pm 9.2 5.9 4.8 74 2.1 ESE 11 19 6 10 1029.7 - 0.0
20/01:00pm 8.5 4.8 4.7 77 1.8 ESE 13 19 7 10 1029.8 - 0.0
20/12:30pm 7.5 3.9 5.0 84 1.2 SE 13 19 7 10 1030.0 - 0.0
20/12:00pm 6.1 3.3 5.2 94 0.4 ESE 9 15 5 8 1030.4 1031.3 0.0
20/11:30am 5.7 3.4 5.6 99 0.0 SE 7 13 4 7 1030.6 - 0.0
20/11:00am 5.0 2.5 4.9 99 0.0 SE 7 15 4 8 1030.6 - 0.0
20/10:30am 4.1 1.5 4.0 99 0.0 SE 7 15 4 8 1030.6 - 0.0
20/10:17am 4.2 0.8 4.1 99 0.0 E 11 15 6 8 1030.5 - 0.0
20/10:00am 4.6 0.9 4.5 99 0.0 ESE 13 17 7 9 1030.4 - 0.0
20/09:30am 4.4 0.7 4.3 99 0.0 ESE 13 17 7 9 1030.1 - 0.0
20/09:00am 4.6 2.1 4.5 99 0.0 ESE 7 11 4 6 1029.5 1030.4 0.4
20/08:30am 4.3 1.7 4.2 99 0.0 ESE 7 11 4 6 1029.2 - 0.4
20/08:00am 4.1 1.1 4.0 99 0.0 ESE 9 13 5 7 1029.1 - 0.4
20/07:30am 4.0 1.5 3.9 99 0.0 SSE 6 7 3 4 1028.8 - 0.4
20/07:00am 3.8 1.1 3.7 99 0.0 SSE 7 9 4 5 1028.6 - 0.2
20/06:30am 3.9 0.8 3.8 99 0.0 SSE 9 15 5 8 1028.4 - 0.2
20/06:24am 4.0 0.6 3.9 99 0.0 SSE 11 15 6 8 1028.4 - 0.2
20/06:00am 4.5 1.6 4.4 99 0.0 SE 9 13 5 7 1028.2 1029.1 0.2
20/05:54am 4.5 1.9 4.4 99 0.0 SSE 7 11 4 6 1028.2 - 0.2
20/05:30am 5.0 2.7 4.9 99 0.0 S 6 7 3 4 1027.9 - 0.2
20/05:00am 4.9 2.4 4.8 99 0.0 SSW 7 11 4 6 1028.0 - 0.0
20/04:30am 5.0 1.8 4.9 99 0.0 S 11 15 6 8 1028.0 - 0.0
20/04:00am 5.3 2.1 5.2 99 0.0 S 11 15 6 8 1028.2 - 0.0
20/03:30am 5.6 2.5 5.5 99 0.0 S 11 17 6 9 1028.2 - 0.0
20/03:00am 5.9 2.5 5.8 99 0.0 S 13 20 7 11 1028.1 1029.0 0.0
20/02:30am 6.5 4.0 6.4 99 0.0 S 9 13 5 7 1027.8 - 0.0
20/02:00am 6.8 3.9 6.7 99 0.0 S 11 19 6 10 1027.5 - 0.0
20/01:30am 7.5 4.4 7.4 99 0.1 S 13 19 7 10 1027.5 - 0.0
20/01:04am 7.7 5.4 7.6 99 0.1 S 9 17 5 9 1027.3 - 0.0
20/01:00am 7.6 5.3 7.5 99 0.1 S 9 17 5 9 1027.3 - 0.0
20/12:30am 8.7 6.0 3.5 70 2.4 S 7 9 4 5 1027.0 - 0.0
20/12:00am 10.3 7.7 0.9 52 4.2 S 4 6 2 3 1026.9 1027.7 0.0
 
Date/Time
EDT
Temp
°C
App
Temp
°C
Dew
Point
Rel
Hum
%
Delta-T
°C
Wind Press
QNH
hPa
Press
MSL
hPa
Rain
since 9 am
mm
Dir
 
Spd
km/h
Gust
km/h
Spd
kts
Gust
kts
19/11:30pm 12.0 9.3 0.5 45 5.2 SSW 4 7 2 4 1027.0 - 0.0
19/11:00pm 13.2 9.8 -0.8 38 6.2 WSW 7 11 4 6 1027.0 - 0.0
19/10:30pm 14.5 8.8 -0.4 36 6.7 WNW 19 22 10 12 1026.7 - 0.0
19/10:00pm 14.4 9.2 -0.1 37 6.6 WNW 17 24 9 13 1026.7 - 0.0
19/09:30pm 15.0 8.9 0.1 36 6.8 NW 22 33 12 18 1026.5 - 0.0
19/09:00pm 14.9 9.2 0.4 37 6.6 NW 20 26 11 14 1026.2 1027.0 0.0
19/08:30pm 14.7 9.2 0.9 39 6.4 NW 19 26 10 14 1026.2 - 0.0
19/08:00pm 14.1 8.8 1.7 43 5.8 WNW 19 28 10 15 1026.3 - 0.0
19/07:30pm 14.5 9.6 1.8 42 6.0 WNW 17 24 9 13 1026.3 - 0.0
19/07:00pm 15.1 8.4 1.3 39 6.5 WNW 26 37 14 20 1025.9 - 0.0
19/06:30pm 15.5 8.3 0.9 37 6.8 WNW 28 48 15 26 1025.8 - 0.0
19/06:21pm 16.1 8.8 0.3 34 7.3 WNW 28 48 15 26 1025.6 - 0.0
19/06:00pm 16.8 9.4 -0.4 31 7.9 WNW 28 44 15 24 1025.4 1026.2 0.0
19/05:32pm 16.7 9.5 0.4 33 7.6 WNW 28 48 15 26 1025.2 - 0.0
19/05:30pm 16.6 10.0 -0.1 32 7.7 WNW 24 39 13 21 1025.2 - 0.0
19/05:00pm 16.1 12.0 -0.2 33 7.5 WNW 11 22 6 12 1025.0 - 0.0
19/04:30pm 16.9 11.3 -0.3 31 7.9 W 19 24 10 13 1024.9 - 0.0
19/04:00pm 18.5 15.4 1.1 31 8.3 N 7 15 4 8 1024.9 - 0.0
19/03:30pm 16.3 12.1 -0.8 31 7.7 NNE 11 19 6 10 1025.2 - 0.0
19/03:00pm 16.1 10.4 -0.6 32 7.5 NNW 19 26 10 14 1025.3 1026.1 0.0
19/02:30pm 15.8 10.0 0.0 34 7.2 NW 20 30 11 16 1025.7 - 0.0
19/02:00pm 15.7 9.8 -0.5 33 7.3 NW 20 30 11 16 1026.2 - 0.0
19/01:30pm 15.3 9.8 0.3 36 6.9 N 19 30 10 16 1026.5 - 0.0
19/01:00pm 15.1 9.4 -1.0 33 7.2 NNW 19 26 10 14 1026.6 - 0.0
19/12:30pm 14.7 9.0 -0.6 35 6.9 NNW 19 33 10 18 1027.0 - 0.0
19/12:00pm 16.4 9.4 -0.3 32 7.6 NNW 26 35 14 19 1027.1 1028.0 0.0
19/11:30am 18.0 12.6 2.7 36 7.5 NNW 20 35 11 19 1027.2 - 0.0
19/11:00am 17.5 11.0 0.6 32 8.0 NNW 24 35 13 19 1027.2 - 0.0
19/10:30am 17.2 11.7 0.8 33 7.7 NNW 19 28 10 15 1027.2 - 0.0
19/10:00am 15.9 11.1 0.5 35 7.1 NNW 15 26 8 14 1027.3 - 0.0
19/09:30am 14.8 11.0 -0.9 34 7.0 NNW 9 15 5 8 1027.1 - 0.0
19/09:00am 13.9 8.6 -0.9 36 6.5 NW 17 24 9 13 1027.0 1027.8 0.0
19/08:30am 13.4 9.1 -1.3 36 6.4 NW 11 17 6 9 1026.9 - 0.0
19/08:00am 13.0 7.2 -1.7 36 6.3 NW 19 30 10 16 1026.6 - 0.0
19/07:30am 12.1 7.4 -1.8 38 5.9 NNW 13 22 7 12 1026.6 - 0.0
19/07:00am 12.7 8.3 -2.3 35 6.4 W 11 19 6 10 1026.9 - 0.0
19/06:30am 11.2 6.8 -2.6 38 5.7 NW 11 17 6 9 1026.3 - 0.0
19/06:00am 7.9 4.1 -1.1 53 3.7 N 9 13 5 7 1026.1 1026.9 0.0
19/05:30am 7.7 4.2 -1.5 52 3.8 N 7 7 4 4 1026.2 - 0.0
19/05:00am 9.7 6.2 -1.6 45 4.7 NNW 7 13 4 7 1026.3 - 0.0
19/04:30am 9.9 6.0 -1.5 45 4.8 N 9 13 5 7 1026.4 - 0.0
19/04:00am 10.0 5.7 -1.7 44 4.9 NNW 11 15 6 8 1026.5 - 0.0
19/03:30am 9.1 4.4 -1.9 46 4.5 WNW 13 19 7 10 1026.7 - 0.0
19/03:00am 10.5 5.4 -1.9 42 5.2 WNW 15 20 8 11 1026.9 1027.7 0.0
19/02:30am 9.9 4.9 -1.5 45 4.8 NW 15 22 8 12 1026.7 - 0.0
19/02:00am 10.8 5.2 -2.9 38 5.6 WNW 17 24 9 13 1027.3 - 0.0
19/01:30am 9.0 4.8 -1.1 49 4.3 NW 11 17 6 9 1027.4 - 0.0
19/01:00am 10.1 5.9 -0.7 47 4.6 NW 11 20 6 11 1027.8 - 0.0
19/12:30am 10.2 6.1 0.0 49 4.5 NNW 11 20 6 11 1028.0 - 0.0
19/12:00am 10.0 6.5 1.1 54 4.0 N 9 13 5 7 1028.2 1029.1 0.0
 
Date/Time
EDT
Temp
°C
App
Temp
°C
Dew
Point
Rel
Hum
%
Delta-T
°C
Wind Press
QNH
hPa
Press
MSL
hPa
Rain
since 9 am
mm
Dir
 
Spd
km/h
Gust
km/h
Spd
kts
Gust
kts
18/11:30pm 10.3 7.1 3.3 62 3.3 NNW 9 19 5 10 1028.2 - 0.0
18/11:00pm 9.7 7.2 4.5 70 2.5 NW 7 9 4 5 1028.2 - 0.0
18/10:30pm 8.9 6.3 4.1 72 2.3 NW 7 11 4 6 1028.2 - 0.0
18/10:00pm 10.1 7.2 4.5 68 2.7 NW 9 13 5 7 1028.1 - 0.0
18/09:30pm 10.0 6.7 4.6 69 2.6 NW 11 15 6 8 1028.2 - 0.0
18/09:00pm 11.3 8.4 4.7 64 3.2 NW 9 11 5 6 1027.8 1028.7 0.0
18/08:30pm 11.7 8.8 4.7 62 3.4 NNW 9 13 5 7 1027.4 - 0.0
18/08:00pm 12.1 9.6 5.0 62 3.5 NNW 7 9 4 5 1027.3 - 0.0
18/07:30pm 12.4 9.5 4.9 60 3.7 WNW 9 11 5 6 1027.3 - 0.0
18/07:00pm 13.5 10.7 5.2 57 4.2 WNW 9 13 5 7 1026.9 - 0.0
18/06:30pm 15.6 13.9 5.8 52 5.1 NNE 4 9 2 5 1026.7 - 0.0
18/06:00pm 15.9 13.6 5.8 51 5.2 ENE 7 11 4 6 1026.4 1027.3 0.0

Other Formats:

Comma delimited format used in spreadsheet applications
http://www.bom.gov.au/fwo/IDV60801/IDV60801.94905.axf

JavaScript Object Notation format (JSON) in row-major order
http://www.bom.gov.au/fwo/IDV60801/IDV60801.94905.json